sensor_id;sensor_type;location;lat;lon;timestamp;P1;durP1;ratioP1;P2;durP2;ratioP2
10090;SDS011;5084;51.386;6.778;2024-02-15T00:00:39;5.63;;;4.43;;
10090;SDS011;5084;51.386;6.778;2024-02-15T00:03:05;8.87;;;5.53;;
10090;SDS011;5084;51.386;6.778;2024-02-15T00:05:32;6.87;;;4.90;;
10090;SDS011;5084;51.386;6.778;2024-02-15T00:08:01;5.97;;;4.33;;
10090;SDS011;5084;51.386;6.778;2024-02-15T00:10:27;7.33;;;4.83;;
10090;SDS011;5084;51.386;6.778;2024-02-15T00:12:53;7.07;;;4.50;;
10090;SDS011;5084;51.386;6.778;2024-02-15T00:15:20;5.90;;;4.60;;
10090;SDS011;5084;51.386;6.778;2024-02-15T00:17:46;5.00;;;4.37;;
10090;SDS011;5084;51.386;6.778;2024-02-15T00:20:12;5.30;;;4.80;;
10090;SDS011;5084;51.386;6.778;2024-02-15T00:22:38;6.43;;;4.40;;
10090;SDS011;5084;51.386;6.778;2024-02-15T00:25:06;9.13;;;4.57;;
10090;SDS011;5084;51.386;6.778;2024-02-15T00:27:33;6.50;;;4.40;;
10090;SDS011;5084;51.386;6.778;2024-02-15T00:30:00;6.33;;;4.93;;
10090;SDS011;5084;51.386;6.778;2024-02-15T00:32:26;7.03;;;5.13;;
10090;SDS011;5084;51.386;6.778;2024-02-15T00:34:52;7.43;;;4.97;;
10090;SDS011;5084;51.386;6.778;2024-02-15T00:37:18;5.60;;;4.67;;
10090;SDS011;5084;51.386;6.778;2024-02-15T00:39:44;5.57;;;5.00;;
10090;SDS011;5084;51.386;6.778;2024-02-15T00:42:10;5.83;;;5.20;;
10090;SDS011;5084;51.386;6.778;2024-02-15T00:44:36;5.83;;;5.23;;
10090;SDS011;5084;51.386;6.778;2024-02-15T00:47:03;5.60;;;5.10;;
10090;SDS011;5084;51.386;6.778;2024-02-15T00:49:30;10.37;;;5.10;;
10090;SDS011;5084;51.386;6.778;2024-02-15T00:51:57;8.23;;;5.50;;
10090;SDS011;5084;51.386;6.778;2024-02-15T00:54:23;7.37;;;5.20;;
10090;SDS011;5084;51.386;6.778;2024-02-15T00:56:49;8.17;;;6.23;;
10090;SDS011;5084;51.386;6.778;2024-02-15T00:59:15;7.67;;;5.60;;
10090;SDS011;5084;51.386;6.778;2024-02-15T01:01:41;6.93;;;5.47;;
10090;SDS011;5084;51.386;6.778;2024-02-15T01:04:07;7.37;;;5.63;;
10090;SDS011;5084;51.386;6.778;2024-02-15T01:06:33;8.73;;;6.07;;
10090;SDS011;5084;51.386;6.778;2024-02-15T01:08:59;7.33;;;5.53;;
10090;SDS011;5084;51.386;6.778;2024-02-15T01:11:27;6.17;;;5.43;;
10090;SDS011;5084;51.386;6.778;2024-02-15T01:13:53;5.37;;;4.90;;
10090;SDS011;5084;51.386;6.778;2024-02-15T01:16:19;7.70;;;5.70;;
10090;SDS011;5084;51.386;6.778;2024-02-15T01:18:46;7.33;;;5.90;;
10090;SDS011;5084;51.386;6.778;2024-02-15T01:21:12;8.03;;;6.50;;
10090;SDS011;5084;51.386;6.778;2024-02-15T01:23:38;9.37;;;6.30;;
10090;SDS011;5084;51.386;6.778;2024-02-15T01:26:04;8.73;;;6.00;;
10090;SDS011;5084;51.386;6.778;2024-02-15T01:28:31;10.47;;;6.67;;
10090;SDS011;5084;51.386;6.778;2024-02-15T01:30:57;8.40;;;6.27;;
10090;SDS011;5084;51.386;6.778;2024-02-15T01:33:23;10.47;;;6.27;;
10090;SDS011;5084;51.386;6.778;2024-02-15T01:35:49;7.57;;;6.40;;
10090;SDS011;5084;51.386;6.778;2024-02-15T01:38:15;9.83;;;6.63;;
10090;SDS011;5084;51.386;6.778;2024-02-15T01:40:41;8.97;;;6.37;;
10090;SDS011;5084;51.386;6.778;2024-02-15T01:43:07;7.40;;;6.63;;
10090;SDS011;5084;51.386;6.778;2024-02-15T01:45:33;7.67;;;5.93;;
10090;SDS011;5084;51.386;6.778;2024-02-15T01:48:00;11.33;;;6.47;;
10090;SDS011;5084;51.386;6.778;2024-02-15T01:50:28;10.00;;;6.73;;
10090;SDS011;5084;51.386;6.778;2024-02-15T01:52:55;9.50;;;6.17;;
10090;SDS011;5084;51.386;6.778;2024-02-15T01:55:22;11.03;;;6.43;;
10090;SDS011;5084;51.386;6.778;2024-02-15T01:57:48;11.97;;;7.47;;
10090;SDS011;5084;51.386;6.778;2024-02-15T02:00:15;8.70;;;6.20;;
10090;SDS011;5084;51.386;6.778;2024-02-15T02:02:43;9.80;;;6.47;;
10090;SDS011;5084;51.386;6.778;2024-02-15T02:05:10;8.53;;;6.07;;
10090;SDS011;5084;51.386;6.778;2024-02-15T02:07:36;9.33;;;6.20;;
10090;SDS011;5084;51.386;6.778;2024-02-15T02:10:03;10.00;;;6.47;;
10090;SDS011;5084;51.386;6.778;2024-02-15T02:12:29;7.63;;;5.80;;
10090;SDS011;5084;51.386;6.778;2024-02-15T02:14:55;8.03;;;6.60;;
10090;SDS011;5084;51.386;6.778;2024-02-15T02:17:22;10.43;;;6.33;;
10090;SDS011;5084;51.386;6.778;2024-02-15T02:19:48;9.03;;;5.83;;
10090;SDS011;5084;51.386;6.778;2024-02-15T02:22:17;10.30;;;6.47;;
10090;SDS011;5084;51.386;6.778;2024-02-15T02:24:52;11.17;;;5.93;;
10090;SDS011;5084;51.386;6.778;2024-02-15T02:27:18;8.03;;;5.37;;
10090;SDS011;5084;51.386;6.778;2024-02-15T02:29:45;10.00;;;5.70;;
10090;SDS011;5084;51.386;6.778;2024-02-15T02:32:11;9.27;;;5.93;;
10090;SDS011;5084;51.386;6.778;2024-02-15T02:34:38;8.30;;;5.43;;
10090;SDS011;5084;51.386;6.778;2024-02-15T02:37:07;9.67;;;5.80;;
10090;SDS011;5084;51.386;6.778;2024-02-15T02:39:33;6.73;;;5.67;;
10090;SDS011;5084;51.386;6.778;2024-02-15T02:41:59;9.37;;;6.03;;
10090;SDS011;5084;51.386;6.778;2024-02-15T02:44:26;9.47;;;6.27;;
10090;SDS011;5084;51.386;6.778;2024-02-15T02:46:52;7.40;;;5.67;;
10090;SDS011;5084;51.386;6.778;2024-02-15T02:49:17;7.63;;;5.60;;
10090;SDS011;5084;51.386;6.778;2024-02-15T02:51:43;8.93;;;5.47;;
10090;SDS011;5084;51.386;6.778;2024-02-15T02:54:10;7.00;;;4.93;;
10090;SDS011;5084;51.386;6.778;2024-02-15T02:56:36;10.10;;;6.00;;
10090;SDS011;5084;51.386;6.778;2024-02-15T02:59:02;7.67;;;5.23;;
10090;SDS011;5084;51.386;6.778;2024-02-15T03:01:28;9.17;;;5.30;;
10090;SDS011;5084;51.386;6.778;2024-02-15T03:03:55;7.77;;;5.47;;
10090;SDS011;5084;51.386;6.778;2024-02-15T03:06:21;7.80;;;5.27;;
10090;SDS011;5084;51.386;6.778;2024-02-15T03:08:49;7.07;;;5.47;;
10090;SDS011;5084;51.386;6.778;2024-02-15T03:11:19;9.60;;;5.83;;
10090;SDS011;5084;51.386;6.778;2024-02-15T03:13:45;6.73;;;5.10;;
10090;SDS011;5084;51.386;6.778;2024-02-15T03:16:11;10.10;;;5.17;;
10090;SDS011;5084;51.386;6.778;2024-02-15T03:18:37;7.20;;;5.80;;
10090;SDS011;5084;51.386;6.778;2024-02-15T03:21:03;8.90;;;4.63;;
10090;SDS011;5084;51.386;6.778;2024-02-15T03:23:29;7.33;;;4.87;;
10090;SDS011;5084;51.386;6.778;2024-02-15T03:25:58;10.70;;;6.00;;
10090;SDS011;5084;51.386;6.778;2024-02-15T03:28:24;5.90;;;5.30;;
10090;SDS011;5084;51.386;6.778;2024-02-15T03:30:50;6.83;;;5.30;;
10090;SDS011;5084;51.386;6.778;2024-02-15T03:33:17;7.43;;;5.30;;
10090;SDS011;5084;51.386;6.778;2024-02-15T03:35:43;6.40;;;4.40;;
10090;SDS011;5084;51.386;6.778;2024-02-15T03:38:09;7.93;;;5.20;;
10090;SDS011;5084;51.386;6.778;2024-02-15T03:40:37;6.00;;;4.27;;
10090;SDS011;5084;51.386;6.778;2024-02-15T03:43:07;5.17;;;4.63;;
10090;SDS011;5084;51.386;6.778;2024-02-15T03:45:33;8.03;;;4.43;;
10090;SDS011;5084;51.386;6.778;2024-02-15T03:47:59;5.93;;;4.30;;
10090;SDS011;5084;51.386;6.778;2024-02-15T03:50:25;7.30;;;4.77;;
10090;SDS011;5084;51.386;6.778;2024-02-15T03:52:51;7.37;;;4.37;;
10090;SDS011;5084;51.386;6.778;2024-02-15T03:55:18;7.13;;;4.50;;
10090;SDS011;5084;51.386;6.778;2024-02-15T03:57:45;7.97;;;4.70;;
10090;SDS011;5084;51.386;6.778;2024-02-15T04:00:11;6.73;;;4.13;;
10090;SDS011;5084;51.386;6.778;2024-02-15T04:02:39;10.13;;;5.43;;
10090;SDS011;5084;51.386;6.778;2024-02-15T04:05:06;6.13;;;4.07;;
10090;SDS011;5084;51.386;6.778;2024-02-15T04:07:34;9.17;;;4.10;;
10090;SDS011;5084;51.386;6.778;2024-02-15T04:10:00;6.50;;;4.23;;
10090;SDS011;5084;51.386;6.778;2024-02-15T04:12:26;5.87;;;4.07;;
10090;SDS011;5084;51.386;6.778;2024-02-15T04:14:52;6.33;;;4.77;;
10090;SDS011;5084;51.386;6.778;2024-02-15T04:17:19;8.03;;;4.33;;
10090;SDS011;5084;51.386;6.778;2024-02-15T04:19:46;8.63;;;4.53;;
10090;SDS011;5084;51.386;6.778;2024-02-15T04:22:14;10.40;;;5.33;;
10090;SDS011;5084;51.386;6.778;2024-02-15T04:24:41;7.53;;;4.47;;
10090;SDS011;5084;51.386;6.778;2024-02-15T04:27:07;6.57;;;4.40;;
10090;SDS011;5084;51.386;6.778;2024-02-15T04:29:36;6.63;;;4.23;;
10090;SDS011;5084;51.386;6.778;2024-02-15T04:32:05;8.57;;;4.70;;
10090;SDS011;5084;51.386;6.778;2024-02-15T04:34:35;10.10;;;4.67;;
10090;SDS011;5084;51.386;6.778;2024-02-15T04:37:01;6.90;;;4.40;;
10090;SDS011;5084;51.386;6.778;2024-02-15T04:39:31;8.17;;;4.43;;
10090;SDS011;5084;51.386;6.778;2024-02-15T04:41:57;6.37;;;4.67;;
10090;SDS011;5084;51.386;6.778;2024-02-15T04:44:23;8.77;;;4.13;;
10090;SDS011;5084;51.386;6.778;2024-02-15T04:46:52;6.73;;;4.30;;
10090;SDS011;5084;51.386;6.778;2024-02-15T04:49:18;8.93;;;4.53;;
10090;SDS011;5084;51.386;6.778;2024-02-15T04:51:44;5.80;;;4.90;;
10090;SDS011;5084;51.386;6.778;2024-02-15T04:54:12;6.63;;;4.60;;
10090;SDS011;5084;51.386;6.778;2024-02-15T04:56:38;7.43;;;4.20;;
10090;SDS011;5084;51.386;6.778;2024-02-15T04:59:05;4.83;;;4.23;;
10090;SDS011;5084;51.386;6.778;2024-02-15T05:01:34;6.93;;;4.33;;
10090;SDS011;5084;51.386;6.778;2024-02-15T05:04:00;5.37;;;4.10;;
10090;SDS011;5084;51.386;6.778;2024-02-15T05:06:31;7.17;;;3.60;;
10090;SDS011;5084;51.386;6.778;2024-02-15T05:08:57;5.47;;;4.00;;
10090;SDS011;5084;51.386;6.778;2024-02-15T05:11:24;8.57;;;4.13;;
10090;SDS011;5084;51.386;6.778;2024-02-15T05:13:51;4.37;;;3.70;;
10090;SDS011;5084;51.386;6.778;2024-02-15T05:16:17;5.07;;;4.07;;
10090;SDS011;5084;51.386;6.778;2024-02-15T05:18:43;4.47;;;3.27;;
10090;SDS011;5084;51.386;6.778;2024-02-15T05:21:10;5.73;;;3.97;;
10090;SDS011;5084;51.386;6.778;2024-02-15T05:23:37;5.27;;;3.40;;
10090;SDS011;5084;51.386;6.778;2024-02-15T05:26:04;5.47;;;3.93;;
10090;SDS011;5084;51.386;6.778;2024-02-15T05:28:31;4.77;;;3.77;;
10090;SDS011;5084;51.386;6.778;2024-02-15T05:31:13;3.43;;;3.13;;
10090;SDS011;5084;51.386;6.778;2024-02-15T05:33:42;6.60;;;3.70;;
10090;SDS011;5084;51.386;6.778;2024-02-15T05:36:11;4.17;;;3.30;;
10090;SDS011;5084;51.386;6.778;2024-02-15T05:38:38;4.60;;;3.37;;
10090;SDS011;5084;51.386;6.778;2024-02-15T05:41:04;6.83;;;3.33;;
10090;SDS011;5084;51.386;6.778;2024-02-15T05:43:32;7.18;;;4.07;;
10090;SDS011;5084;51.386;6.778;2024-02-15T05:45:58;5.70;;;3.93;;
10090;SDS011;5084;51.386;6.778;2024-02-15T05:48:25;5.27;;;4.13;;
10090;SDS011;5084;51.386;6.778;2024-02-15T05:50:52;5.27;;;3.50;;
10090;SDS011;5084;51.386;6.778;2024-02-15T05:53:19;4.30;;;3.37;;
10090;SDS011;5084;51.386;6.778;2024-02-15T05:55:45;5.63;;;3.43;;
10090;SDS011;5084;51.386;6.778;2024-02-15T05:58:14;3.67;;;3.27;;
10090;SDS011;5084;51.386;6.778;2024-02-15T06:00:40;4.23;;;3.33;;
10090;SDS011;5084;51.386;6.778;2024-02-15T06:03:06;4.50;;;3.23;;
10090;SDS011;5084;51.386;6.778;2024-02-15T06:05:34;7.27;;;4.03;;
10090;SDS011;5084;51.386;6.778;2024-02-15T06:08:00;6.17;;;3.60;;
10090;SDS011;5084;51.386;6.778;2024-02-15T06:10:26;7.47;;;3.47;;
10090;SDS011;5084;51.386;6.778;2024-02-15T06:12:54;7.73;;;3.83;;
10090;SDS011;5084;51.386;6.778;2024-02-15T06:15:20;8.10;;;3.60;;
10090;SDS011;5084;51.386;6.778;2024-02-15T06:17:46;3.80;;;3.50;;
10090;SDS011;5084;51.386;6.778;2024-02-15T06:20:12;5.83;;;3.50;;
10090;SDS011;5084;51.386;6.778;2024-02-15T06:22:39;3.63;;;3.23;;
10090;SDS011;5084;51.386;6.778;2024-02-15T06:25:05;7.53;;;3.60;;
10090;SDS011;5084;51.386;6.778;2024-02-15T06:27:31;5.13;;;3.87;;
10090;SDS011;5084;51.386;6.778;2024-02-15T06:29:58;5.40;;;3.93;;
10090;SDS011;5084;51.386;6.778;2024-02-15T06:32:43;6.93;;;4.27;;
10090;SDS011;5084;51.386;6.778;2024-02-15T06:35:27;7.60;;;4.27;;
10090;SDS011;5084;51.386;6.778;2024-02-15T06:38:12;5.47;;;3.80;;
10090;SDS011;5084;51.386;6.778;2024-02-15T06:40:57;5.43;;;3.77;;
10090;SDS011;5084;51.386;6.778;2024-02-15T06:43:23;9.60;;;4.33;;
10090;SDS011;5084;51.386;6.778;2024-02-15T06:45:49;5.67;;;3.60;;
10090;SDS011;5084;51.386;6.778;2024-02-15T06:48:16;5.37;;;3.57;;
10090;SDS011;5084;51.386;6.778;2024-02-15T06:50:42;5.67;;;3.43;;
10090;SDS011;5084;51.386;6.778;2024-02-15T06:53:08;7.97;;;3.70;;
10090;SDS011;5084;51.386;6.778;2024-02-15T06:55:34;5.07;;;3.10;;
10090;SDS011;5084;51.386;6.778;2024-02-15T06:58:01;8.93;;;3.90;;
10090;SDS011;5084;51.386;6.778;2024-02-15T07:00:27;5.57;;;3.30;;
10090;SDS011;5084;51.386;6.778;2024-02-15T07:02:55;5.33;;;3.60;;
10090;SDS011;5084;51.386;6.778;2024-02-15T07:05:21;5.53;;;3.20;;
10090;SDS011;5084;51.386;6.778;2024-02-15T07:07:48;4.60;;;3.60;;
10090;SDS011;5084;51.386;6.778;2024-02-15T07:10:14;5.10;;;2.90;;
10090;SDS011;5084;51.386;6.778;2024-02-15T07:12:43;6.47;;;3.77;;
10090;SDS011;5084;51.386;6.778;2024-02-15T07:15:10;5.23;;;3.67;;
10090;SDS011;5084;51.386;6.778;2024-02-15T07:17:37;7.80;;;4.07;;
10090;SDS011;5084;51.386;6.778;2024-02-15T07:20:03;7.03;;;3.47;;
10090;SDS011;5084;51.386;6.778;2024-02-15T07:22:30;6.60;;;3.93;;
10090;SDS011;5084;51.386;6.778;2024-02-15T07:24:56;5.23;;;3.07;;
10090;SDS011;5084;51.386;6.778;2024-02-15T07:27:22;5.43;;;3.80;;
10090;SDS011;5084;51.386;6.778;2024-02-15T07:29:51;6.40;;;3.40;;
10090;SDS011;5084;51.386;6.778;2024-02-15T07:32:17;8.63;;;3.47;;
10090;SDS011;5084;51.386;6.778;2024-02-15T07:34:44;4.43;;;4.03;;
10090;SDS011;5084;51.386;6.778;2024-02-15T07:37:11;8.07;;;3.73;;
10090;SDS011;5084;51.386;6.778;2024-02-15T07:39:37;5.57;;;4.17;;
10090;SDS011;5084;51.386;6.778;2024-02-15T07:42:05;5.77;;;3.60;;
10090;SDS011;5084;51.386;6.778;2024-02-15T07:44:33;5.63;;;3.63;;
10090;SDS011;5084;51.386;6.778;2024-02-15T07:47:01;9.13;;;4.10;;
10090;SDS011;5084;51.386;6.778;2024-02-15T07:49:27;7.63;;;4.37;;
10090;SDS011;5084;51.386;6.778;2024-02-15T07:51:54;12.70;;;3.97;;
10090;SDS011;5084;51.386;6.778;2024-02-15T07:54:20;5.03;;;3.67;;
10090;SDS011;5084;51.386;6.778;2024-02-15T07:56:49;13.00;;;4.27;;
10090;SDS011;5084;51.386;6.778;2024-02-15T07:59:16;8.80;;;4.10;;
10090;SDS011;5084;51.386;6.778;2024-02-15T08:01:43;6.67;;;4.00;;
10090;SDS011;5084;51.386;6.778;2024-02-15T08:04:10;7.70;;;3.87;;
10090;SDS011;5084;51.386;6.778;2024-02-15T08:06:36;7.97;;;4.13;;
10090;SDS011;5084;51.386;6.778;2024-02-15T08:09:03;5.63;;;3.90;;
10090;SDS011;5084;51.386;6.778;2024-02-15T08:11:38;6.27;;;4.33;;
10090;SDS011;5084;51.386;6.778;2024-02-15T08:14:05;7.80;;;3.80;;
10090;SDS011;5084;51.386;6.778;2024-02-15T08:16:34;10.23;;;3.90;;
10090;SDS011;5084;51.386;6.778;2024-02-15T08:19:00;7.00;;;3.77;;
10090;SDS011;5084;51.386;6.778;2024-02-15T08:23:54;7.37;;;4.00;;
10090;SDS011;5084;51.386;6.778;2024-02-15T08:26:20;6.50;;;4.07;;
10090;SDS011;5084;51.386;6.778;2024-02-15T08:28:46;5.73;;;3.50;;
10090;SDS011;5084;51.386;6.778;2024-02-15T08:31:12;8.43;;;4.20;;
10090;SDS011;5084;51.386;6.778;2024-02-15T08:33:40;7.30;;;4.50;;
10090;SDS011;5084;51.386;6.778;2024-02-15T08:36:08;6.43;;;4.07;;
10090;SDS011;5084;51.386;6.778;2024-02-15T08:38:35;6.20;;;3.67;;
10090;SDS011;5084;51.386;6.778;2024-02-15T08:41:02;8.10;;;4.67;;
10090;SDS011;5084;51.386;6.778;2024-02-15T08:43:29;5.20;;;3.50;;
10090;SDS011;5084;51.386;6.778;2024-02-15T08:45:57;9.07;;;3.40;;
10090;SDS011;5084;51.386;6.778;2024-02-15T08:48:24;7.67;;;3.60;;
10090;SDS011;5084;51.386;6.778;2024-02-15T08:50:51;5.90;;;3.93;;
10090;SDS011;5084;51.386;6.778;2024-02-15T08:53:17;7.67;;;3.80;;
10090;SDS011;5084;51.386;6.778;2024-02-15T08:55:47;5.83;;;3.47;;
10090;SDS011;5084;51.386;6.778;2024-02-15T08:58:13;5.63;;;3.40;;
10090;SDS011;5084;51.386;6.778;2024-02-15T09:00:39;6.07;;;3.70;;
10090;SDS011;5084;51.386;6.778;2024-02-15T09:03:10;5.33;;;3.63;;
10090;SDS011;5084;51.386;6.778;2024-02-15T09:05:37;6.67;;;3.30;;
10090;SDS011;5084;51.386;6.778;2024-02-15T09:08:03;5.13;;;3.50;;
10090;SDS011;5084;51.386;6.778;2024-02-15T09:10:32;6.97;;;3.63;;
10090;SDS011;5084;51.386;6.778;2024-02-15T09:12:58;5.43;;;3.57;;
10090;SDS011;5084;51.386;6.778;2024-02-15T09:15:24;6.53;;;3.17;;
10090;SDS011;5084;51.386;6.778;2024-02-15T09:17:50;6.40;;;3.20;;
10090;SDS011;5084;51.386;6.778;2024-02-15T09:20:17;7.07;;;3.33;;
10090;SDS011;5084;51.386;6.778;2024-02-15T09:22:51;6.63;;;3.23;;
10090;SDS011;5084;51.386;6.778;2024-02-15T09:25:17;5.00;;;3.30;;
10090;SDS011;5084;51.386;6.778;2024-02-15T09:27:44;4.77;;;3.20;;
10090;SDS011;5084;51.386;6.778;2024-02-15T09:30:10;6.50;;;3.40;;
10090;SDS011;5084;51.386;6.778;2024-02-15T09:32:37;8.47;;;3.60;;
10090;SDS011;5084;51.386;6.778;2024-02-15T09:35:03;6.67;;;3.47;;
10090;SDS011;5084;51.386;6.778;2024-02-15T09:37:32;7.77;;;3.53;;
10090;SDS011;5084;51.386;6.778;2024-02-15T09:39:58;4.90;;;3.57;;
10090;SDS011;5084;51.386;6.778;2024-02-15T09:42:29;5.90;;;3.10;;
10090;SDS011;5084;51.386;6.778;2024-02-15T09:44:55;4.20;;;2.80;;
10090;SDS011;5084;51.386;6.778;2024-02-15T09:47:22;4.70;;;3.37;;
10090;SDS011;5084;51.386;6.778;2024-02-15T09:49:49;6.07;;;3.60;;
10090;SDS011;5084;51.386;6.778;2024-02-15T09:52:15;7.60;;;4.87;;
10090;SDS011;5084;51.386;6.778;2024-02-15T09:54:43;5.33;;;3.43;;
10090;SDS011;5084;51.386;6.778;2024-02-15T09:57:09;8.20;;;3.20;;
10090;SDS011;5084;51.386;6.778;2024-02-15T09:59:38;3.83;;;2.90;;
10090;SDS011;5084;51.386;6.778;2024-02-15T10:02:05;6.03;;;3.27;;
10090;SDS011;5084;51.386;6.778;2024-02-15T10:04:39;3.87;;;2.83;;
10090;SDS011;5084;51.386;6.778;2024-02-15T10:07:05;6.37;;;3.30;;
10090;SDS011;5084;51.386;6.778;2024-02-15T10:09:33;5.23;;;3.47;;
10090;SDS011;5084;51.386;6.778;2024-02-15T10:12:02;7.60;;;3.20;;
10090;SDS011;5084;51.386;6.778;2024-02-15T10:14:31;4.60;;;3.07;;
10090;SDS011;5084;51.386;6.778;2024-02-15T10:17:00;5.60;;;3.40;;
10090;SDS011;5084;51.386;6.778;2024-02-15T10:19:32;5.63;;;3.70;;
10090;SDS011;5084;51.386;6.778;2024-02-15T10:22:06;6.20;;;3.20;;
10090;SDS011;5084;51.386;6.778;2024-02-15T10:24:33;4.03;;;3.27;;
10090;SDS011;5084;51.386;6.778;2024-02-15T10:27:00;4.10;;;3.03;;
10090;SDS011;5084;51.386;6.778;2024-02-15T10:29:29;6.00;;;2.87;;
10090;SDS011;5084;51.386;6.778;2024-02-15T10:31:59;6.10;;;3.40;;
10090;SDS011;5084;51.386;6.778;2024-02-15T10:34:26;6.67;;;3.70;;
10090;SDS011;5084;51.386;6.778;2024-02-15T10:36:53;7.13;;;3.20;;
10090;SDS011;5084;51.386;6.778;2024-02-15T10:39:21;5.53;;;2.90;;
10090;SDS011;5084;51.386;6.778;2024-02-15T10:41:52;4.43;;;3.40;;
10090;SDS011;5084;51.386;6.778;2024-02-15T10:44:23;3.57;;;3.00;;
10090;SDS011;5084;51.386;6.778;2024-02-15T10:46:50;6.37;;;3.43;;
10090;SDS011;5084;51.386;6.778;2024-02-15T10:49:20;3.83;;;2.90;;
10090;SDS011;5084;51.386;6.778;2024-02-15T10:51:50;5.70;;;3.33;;
10090;SDS011;5084;51.386;6.778;2024-02-15T10:54:19;4.43;;;3.00;;
10090;SDS011;5084;51.386;6.778;2024-02-15T10:56:50;7.83;;;3.53;;
10090;SDS011;5084;51.386;6.778;2024-02-15T10:59:21;7.20;;;3.17;;
10090;SDS011;5084;51.386;6.778;2024-02-15T11:01:52;5.00;;;4.07;;
10090;SDS011;5084;51.386;6.778;2024-02-15T11:04:20;3.17;;;2.90;;
10090;SDS011;5084;51.386;6.778;2024-02-15T11:06:47;4.33;;;3.10;;
10090;SDS011;5084;51.386;6.778;2024-02-15T11:09:15;7.13;;;3.20;;
10090;SDS011;5084;51.386;6.778;2024-02-15T11:11:41;6.03;;;3.13;;
10090;SDS011;5084;51.386;6.778;2024-02-15T11:14:25;5.83;;;3.63;;
10090;SDS011;5084;51.386;6.778;2024-02-15T11:16:51;4.73;;;3.00;;
10090;SDS011;5084;51.386;6.778;2024-02-15T11:22:02;7.27;;;4.07;;
10090;SDS011;5084;51.386;6.778;2024-02-15T11:24:34;5.50;;;2.83;;
10090;SDS011;5084;51.386;6.778;2024-02-15T11:27:04;6.80;;;3.33;;
10090;SDS011;5084;51.386;6.778;2024-02-15T11:35:02;4.70;;;2.63;;
10090;SDS011;5084;51.386;6.778;2024-02-15T11:37:48;4.23;;;2.40;;
10090;SDS011;5084;51.386;6.778;2024-02-15T11:40:21;7.63;;;3.23;;
10090;SDS011;5084;51.386;6.778;2024-02-15T11:42:58;5.93;;;2.70;;
10090;SDS011;5084;51.386;6.778;2024-02-15T11:45:25;5.37;;;3.03;;
10090;SDS011;5084;51.386;6.778;2024-02-15T11:47:52;3.10;;;2.80;;
10090;SDS011;5084;51.386;6.778;2024-02-15T11:50:19;6.67;;;3.07;;
10090;SDS011;5084;51.386;6.778;2024-02-15T11:52:46;4.73;;;2.57;;
10090;SDS011;5084;51.386;6.778;2024-02-15T11:55:14;3.87;;;2.93;;
10090;SDS011;5084;51.386;6.778;2024-02-15T11:57:44;3.00;;;2.50;;
10090;SDS011;5084;51.386;6.778;2024-02-15T12:00:22;7.07;;;2.97;;
10090;SDS011;5084;51.386;6.778;2024-02-15T12:03:06;4.55;;;2.88;;
10090;SDS011;5084;51.386;6.778;2024-02-15T12:05:51;3.33;;;2.07;;
10090;SDS011;5084;51.386;6.778;2024-02-15T12:08:36;5.50;;;2.70;;
10090;SDS011;5084;51.386;6.778;2024-02-15T12:11:21;5.07;;;2.73;;
10090;SDS011;5084;51.386;6.778;2024-02-15T12:14:06;5.53;;;2.73;;
10090;SDS011;5084;51.386;6.778;2024-02-15T12:17:00;5.50;;;2.63;;
10090;SDS011;5084;51.386;6.778;2024-02-15T12:19:46;7.27;;;3.07;;
10090;SDS011;5084;51.386;6.778;2024-02-15T12:22:12;4.67;;;2.20;;
10090;SDS011;5084;51.386;6.778;2024-02-15T12:24:38;5.53;;;2.60;;
10090;SDS011;5084;51.386;6.778;2024-02-15T12:27:04;3.63;;;2.47;;
10090;SDS011;5084;51.386;6.778;2024-02-15T12:29:30;4.07;;;2.40;;
10090;SDS011;5084;51.386;6.778;2024-02-15T12:31:57;7.73;;;2.57;;
10090;SDS011;5084;51.386;6.778;2024-02-15T12:34:24;4.80;;;2.87;;
10090;SDS011;5084;51.386;6.778;2024-02-15T12:36:50;3.03;;;2.00;;
10090;SDS011;5084;51.386;6.778;2024-02-15T12:39:23;4.07;;;2.40;;
10090;SDS011;5084;51.386;6.778;2024-02-15T12:41:50;4.93;;;2.57;;
10090;SDS011;5084;51.386;6.778;2024-02-15T12:44:16;7.13;;;2.23;;
10090;SDS011;5084;51.386;6.778;2024-02-15T12:46:45;3.70;;;2.87;;
10090;SDS011;5084;51.386;6.778;2024-02-15T12:51:41;3.83;;;2.90;;
10090;SDS011;5084;51.386;6.778;2024-02-15T12:54:19;4.53;;;2.97;;
10090;SDS011;5084;51.386;6.778;2024-02-15T12:56:46;4.17;;;1.90;;
10090;SDS011;5084;51.386;6.778;2024-02-15T12:59:14;4.47;;;2.30;;
10090;SDS011;5084;51.386;6.778;2024-02-15T13:01:41;4.33;;;2.37;;
10090;SDS011;5084;51.386;6.778;2024-02-15T13:04:07;3.70;;;2.77;;
10090;SDS011;5084;51.386;6.778;2024-02-15T13:06:34;6.33;;;2.20;;
10090;SDS011;5084;51.386;6.778;2024-02-15T13:09:02;3.30;;;2.50;;
10090;SDS011;5084;51.386;6.778;2024-02-15T13:11:31;2.97;;;2.50;;
10090;SDS011;5084;51.386;6.778;2024-02-15T13:13:59;6.60;;;2.50;;
10090;SDS011;5084;51.386;6.778;2024-02-15T13:16:25;2.90;;;2.20;;
10090;SDS011;5084;51.386;6.778;2024-02-15T13:18:53;2.87;;;2.00;;
10090;SDS011;5084;51.386;6.778;2024-02-15T13:21:19;3.77;;;2.40;;
10090;SDS011;5084;51.386;6.778;2024-02-15T13:23:45;2.30;;;2.10;;
10090;SDS011;5084;51.386;6.778;2024-02-15T13:26:13;2.57;;;2.00;;
10090;SDS011;5084;51.386;6.778;2024-02-15T13:28:39;5.73;;;2.40;;
10090;SDS011;5084;51.386;6.778;2024-02-15T13:31:06;4.20;;;2.07;;
10090;SDS011;5084;51.386;6.778;2024-02-15T13:33:32;3.13;;;2.40;;
10090;SDS011;5084;51.386;6.778;2024-02-15T13:35:58;3.97;;;2.13;;
10090;SDS011;5084;51.386;6.778;2024-02-15T13:38:24;4.47;;;2.10;;
10090;SDS011;5084;51.386;6.778;2024-02-15T13:40:51;4.67;;;2.27;;
10090;SDS011;5084;51.386;6.778;2024-02-15T13:43:20;3.37;;;1.93;;
10090;SDS011;5084;51.386;6.778;2024-02-15T13:45:46;11.33;;;2.40;;
10090;SDS011;5084;51.386;6.778;2024-02-15T13:48:13;4.00;;;2.30;;
10090;SDS011;5084;51.386;6.778;2024-02-15T13:50:41;3.10;;;2.17;;
10090;SDS011;5084;51.386;6.778;2024-02-15T13:53:07;4.23;;;2.33;;
10090;SDS011;5084;51.386;6.778;2024-02-15T13:55:34;3.23;;;2.17;;
10090;SDS011;5084;51.386;6.778;2024-02-15T13:58:02;3.80;;;2.40;;
10090;SDS011;5084;51.386;6.778;2024-02-15T14:00:28;3.53;;;2.20;;
10090;SDS011;5084;51.386;6.778;2024-02-15T14:02:55;3.70;;;2.20;;
10090;SDS011;5084;51.386;6.778;2024-02-15T14:05:22;2.93;;;2.30;;
10090;SDS011;5084;51.386;6.778;2024-02-15T14:07:50;3.83;;;1.90;;
10090;SDS011;5084;51.386;6.778;2024-02-15T14:10:20;2.60;;;2.17;;
10090;SDS011;5084;51.386;6.778;2024-02-15T14:12:47;4.20;;;2.37;;
10090;SDS011;5084;51.386;6.778;2024-02-15T14:15:14;3.70;;;2.27;;
10090;SDS011;5084;51.386;6.778;2024-02-15T14:17:40;6.90;;;2.50;;
10090;SDS011;5084;51.386;6.778;2024-02-15T14:20:06;2.20;;;2.00;;
10090;SDS011;5084;51.386;6.778;2024-02-15T14:22:45;2.60;;;2.10;;
10090;SDS011;5084;51.386;6.778;2024-02-15T14:25:14;2.93;;;2.10;;
10090;SDS011;5084;51.386;6.778;2024-02-15T14:27:40;6.80;;;2.20;;
10090;SDS011;5084;51.386;6.778;2024-02-15T14:30:07;3.03;;;2.10;;
10090;SDS011;5084;51.386;6.778;2024-02-15T14:32:52;2.50;;;1.80;;
10090;SDS011;5084;51.386;6.778;2024-02-15T14:35:25;5.87;;;2.20;;
10090;SDS011;5084;51.386;6.778;2024-02-15T14:37:51;3.50;;;2.00;;
10090;SDS011;5084;51.386;6.778;2024-02-15T14:40:17;4.23;;;2.00;;
10090;SDS011;5084;51.386;6.778;2024-02-15T14:42:43;3.70;;;1.90;;
10090;SDS011;5084;51.386;6.778;2024-02-15T14:45:10;2.60;;;1.83;;
10090;SDS011;5084;51.386;6.778;2024-02-15T14:47:37;2.60;;;1.90;;
10090;SDS011;5084;51.386;6.778;2024-02-15T14:50:03;4.47;;;2.30;;
10090;SDS011;5084;51.386;6.778;2024-02-15T14:52:33;2.60;;;1.77;;
10090;SDS011;5084;51.386;6.778;2024-02-15T14:54:59;3.47;;;2.10;;
10090;SDS011;5084;51.386;6.778;2024-02-15T14:57:25;3.27;;;2.30;;
10090;SDS011;5084;51.386;6.778;2024-02-15T14:59:51;4.37;;;2.30;;
10090;SDS011;5084;51.386;6.778;2024-02-15T15:02:17;5.57;;;2.10;;
10090;SDS011;5084;51.386;6.778;2024-02-15T15:04:43;2.63;;;2.00;;
10090;SDS011;5084;51.386;6.778;2024-02-15T15:07:27;4.07;;;2.10;;
10090;SDS011;5084;51.386;6.778;2024-02-15T15:10:12;3.67;;;1.70;;
10090;SDS011;5084;51.386;6.778;2024-02-15T15:12:56;2.90;;;1.93;;
10090;SDS011;5084;51.386;6.778;2024-02-15T15:15:22;5.10;;;2.43;;
10090;SDS011;5084;51.386;6.778;2024-02-15T15:17:48;3.03;;;1.90;;